Check out our new BloomSky Weather System.

Active alerts


No alerts


Thunder radar  blitzortung!


Rain radar more information rain snow radar


Visit our other weather sites:

Template documentation
and downloads

And another site



Weather Underground History page Text

Daily Summary for May 29, 2017 Units:  Metric    English   Both
« Previous Day
Next Day »
Daily Weekly Monthly Yearly Custom
  High: Low: Average:
Temperature: 28.4 °C 20.2 °C 23.6 °C
Dew Point: 22.8 °C 19.6 °C 21.4 °C
Humidity: 97 % 70 % 88 %
Wind Speed: 16.1 km/h 0 km/h 1.8 km/h
Wind Gust: 32.2 km/h - -
Wind:- - SSW
Pressure: 1017.5 hPa 1010.7 hPa -
Precipitation: 6.6 mm    
Historical Graphs
 
 
Tabular Data for May 29, 2017
Time Temperature Dew Point Pressure Wind Wind Speed Wind Gust Humidity Rainfall Rate (Hourly)
00:02 21.9 °C 20.9 °C 1016.8 hPa Calm   6.4 km/h 94 % 9.91 mm
00:07 21.8 °C 20.8 °C 1016.8 hPa Calm   6.4 km/h 94 % 10.92 mm
00:12 21.8 °C 20.8 °C 1016.5 hPa East 3.2 km/h 4.8 km/h 94 % 11.68 mm
00:17 21.8 °C 21 °C 1016.1 hPa Calm   4.8 km/h 95 % 12.7 mm
00:22 21.8 °C 21 °C 1016.1 hPa East 1.6 km/h 6.4 km/h 95 % 13.46 mm
00:27 21.8 °C 21 °C 1016.1 hPa NNE 3.2 km/h 12.9 km/h 95 % 13.72 mm
00:32 21.8 °C 21 °C 1015.8 hPa ENE 9.7 km/h 12.9 km/h 95 % 13.21 mm
00:37 21.8 °C 21 °C 1016.1 hPa SE 1.6 km/h 12.9 km/h 95 % 12.19 mm
00:38 21.8 °C 21.1 °C 1015.8 hPa East 4.8 km/h 12.9 km/h 96 % 12.19 mm
00:43 21.8 °C 21.1 °C 1015.5 hPa ESE 1.6 km/h 11.3 km/h 96 % 9.65 mm
00:48 21.7 °C 21 °C 1015.1 hPa ESE 1.6 km/h 16.1 km/h 96 % 8.38 mm
00:53 21.7 °C 21 °C 1015.1 hPa NE 1.6 km/h 16.1 km/h 96 % 7.11 mm
00:58 21.7 °C 21 °C 1015.5 hPa NE 1.6 km/h 16.1 km/h 96 % 6.1 mm
01:03 21.7 °C 21 °C 1015.8 hPa East 4.8 km/h 12.9 km/h 96 % 4.83 mm
01:08 21.7 °C 21 °C 1015.8 hPa SSE 4.8 km/h 11.3 km/h 96 % 4.06 mm
01:13 21.7 °C 21 °C 1015.5 hPa South 3.2 km/h 11.3 km/h 96 % 3.3 mm
01:18 21.7 °C 21 °C 1015.1 hPa ENE 6.4 km/h 11.3 km/h 96 % 2.29 mm
01:23 21.6 °C 20.9 °C 1014.8 hPa North 4.8 km/h 11.3 km/h 96 % 1.78 mm
01:28 21.6 °C 20.9 °C 1014.8 hPa East 1.6 km/h 11.3 km/h 96 % 1.52 mm
01:33 21.6 °C 20.9 °C 1014.8 hPa East 1.6 km/h 14.5 km/h 96 % 1.52 mm
01:38 21.6 °C 20.9 °C 1014.8 hPa East 4.8 km/h 14.5 km/h 96 % 1.52 mm
01:43 21.5 °C 20.8 °C 1014.4 hPa ESE 1.6 km/h 14.5 km/h 96 % 1.78 mm
01:48 21.5 °C 20.8 °C 1014.1 hPa SE 3.2 km/h 14.5 km/h 96 % 1.52 mm
01:53 21.4 °C 20.9 °C 1012.8 hPa East 8 km/h 16.1 km/h 97 % 1.78 mm
01:58 21.4 °C 20.9 °C 1012.4 hPa SE 16.1 km/h 17.7 km/h 97 % 1.78 mm
02:03 21.4 °C 20.9 °C 1011.7 hPa ESE 16.1 km/h 27.4 km/h 97 % 1.78 mm
02:08 21.4 °C 20.9 °C 1011.4 hPa SE 11.3 km/h 29 km/h 97 % 1.52 mm
02:13 21.4 °C 20.9 °C 1011.7 hPa ENE 4.8 km/h 32.2 km/h 97 % 1.52 mm
02:19 21.3 °C 20.8 °C 1012.1 hPa East 3.2 km/h 32.2 km/h 97 % 1.52 mm
02:24 21.3 °C 20.8 °C 1012.4 hPa East 3.2 km/h 32.2 km/h 97 % 1.27 mm
02:29 21.4 °C 20.9 °C 1012.4 hPa SE 1.6 km/h 14.5 km/h 97 % 1.02 mm
02:34 21.4 °C 20.9 °C 1012.1 hPa Calm   11.3 km/h 97 % 0.76 mm
02:39 21.4 °C 20.7 °C 1011.7 hPa Calm   11.3 km/h 96 % 0.51 mm
02:44 21.3 °C 20.6 °C 1011.7 hPa ESE 1.6 km/h 11.3 km/h 96 % 0.25 mm
02:49 21.3 °C 20.6 °C 1011.7 hPa Calm   11.3 km/h 96 % 0 mm
02:50 21.3 °C 20.6 °C 1011.7 hPa Calm   11.3 km/h 96 % 0 mm
02:55 21.3 °C 20.6 °C 1011.7 hPa Calm   11.3 km/h 96 % 0 mm
03:00 21.3 °C 20.6 °C 1011.7 hPa NW 1.6 km/h 8 km/h 96 % 0 mm
03:05 21.3 °C 20.8 °C 1012.1 hPa NNW 3.2 km/h 6.4 km/h 97 % 0 mm
03:10 21.3 °C 20.6 °C 1012.4 hPa NNW 4.8 km/h 6.4 km/h 96 % 0 mm
03:15 21.3 °C 20.6 °C 1012.8 hPa NNW 3.2 km/h 8 km/h 96 % 0 mm
03:20 21.3 °C 20.6 °C 1012.8 hPa North 1.6 km/h 8 km/h 96 % 0 mm
03:25 21.3 °C 20.6 °C 1013.1 hPa NNW 3.2 km/h 8 km/h 96 % 0 mm
03:30 21.3 °C 20.6 °C 1013.1 hPa NW 1.6 km/h 6.4 km/h 96 % 0 mm
03:35 21.3 °C 20.6 °C 1012.8 hPa East 3.2 km/h 6.4 km/h 96 % 0 mm
03:40 21.2 °C 20.5 °C 1012.4 hPa ENE 4.8 km/h 6.4 km/h 96 % 0 mm
03:45 21.1 °C 20.4 °C 1012.4 hPa Calm   8 km/h 96 % 0 mm
03:50 21.1 °C 20.4 °C 1012.4 hPa Calm   8 km/h 96 % 0 mm
03:55 21.1 °C 20.4 °C 1012.8 hPa Calm   8 km/h 96 % 0 mm
04:00 21.1 °C 20.4 °C 1012.4 hPa Calm   4.8 km/h 96 % 0 mm
04:05 20.9 °C 20.2 °C 1012.1 hPa North 1.6 km/h 4.8 km/h 96 % 0 mm
04:10 20.9 °C 20.2 °C 1011.7 hPa Calm   4.8 km/h 96 % 0 mm
04:12 20.9 °C 20.2 °C 1011.7 hPa Calm   4.8 km/h 96 % 0 mm
04:17 20.9 °C 20.2 °C 1011.4 hPa Calm   4.8 km/h 96 % 0 mm
04:22 20.8 °C 20.1 °C 1011.4 hPa Calm   6.4 km/h 96 % 0 mm
04:27 20.7 °C 20 °C 1011.4 hPa North 1.6 km/h 6.4 km/h 96 % 0 mm
04:32 20.7 °C 20 °C 1011.4 hPa Calm   6.4 km/h 96 % 0 mm
04:37 20.6 °C 19.9 °C 1011.4 hPa NNW 3.2 km/h 6.4 km/h 96 % 0 mm
04:42 20.6 °C 19.9 °C 1011.4 hPa Calm   4.8 km/h 96 % 0 mm
04:47 20.6 °C 19.9 °C 1011.4 hPa Calm   4.8 km/h 96 % 0 mm
04:52 20.6 °C 19.9 °C 1011.1 hPa Calm   4.8 km/h 96 % 0 mm
04:57 20.6 °C 20.1 °C 1011.1 hPa Calm   4.8 km/h 97 % 0 mm
05:02 20.5 °C 19.8 °C 1010.7 hPa WNW 3.2 km/h 4.8 km/h 96 % 0 mm
05:07 20.5 °C 20 °C 1011.1 hPa Calm   4.8 km/h 97 % 0 mm
05:12 20.4 °C 19.7 °C 1010.7 hPa Calm   4.8 km/h 96 % 0 mm
05:17 20.3 °C 19.6 °C 1011.1 hPa Calm   4.8 km/h 96 % 0 mm
05:22 20.3 °C 19.6 °C 1011.1 hPa Calm   4.8 km/h 96 % 0 mm
05:27 20.2 °C 19.7 °C 1011.1 hPa Calm   3.2 km/h 97 % 0 mm
05:32 20.2 °C 19.7 °C 1011.4 hPa Calm   3.2 km/h 97 % 0 mm
05:37 20.3 °C 19.8 °C 1011.7 hPa Calm     97 % 0 mm
05:42 20.3 °C 19.8 °C 1012.1 hPa Calm   3.2 km/h 97 % 0 mm
05:47 20.3 °C 19.8 °C 1012.4 hPa Calm   3.2 km/h 97 % 0 mm
05:52 20.3 °C 19.8 °C 1012.8 hPa SE 1.6 km/h 3.2 km/h 97 % 0 mm
05:57 20.5 °C 20 °C 1012.8 hPa Calm   3.2 km/h 97 % 0 mm
06:02 20.5 °C 20 °C 1013.1 hPa Calm   3.2 km/h 97 % 0 mm
06:07 20.5 °C 20 °C 1013.1 hPa SE 1.6 km/h 3.2 km/h 97 % 0 mm
06:12 20.6 °C 20.1 °C 1013.1 hPa Calm   1.6 km/h 97 % 0 mm
06:17 20.6 °C 20.1 °C 1013.4 hPa Calm   1.6 km/h 97 % 0 mm
06:22 20.6 °C 20.1 °C 1013.4 hPa Calm   1.6 km/h 97 % 0 mm
06:27 20.6 °C 20.1 °C 1013.8 hPa Calm   3.2 km/h 97 % 0 mm
06:32 20.5 °C 20 °C 1014.1 hPa Calm   3.2 km/h 97 % 0 mm
06:37 20.5 °C 20 °C 1014.1 hPa Calm   3.2 km/h 97 % 0 mm
06:42 20.5 °C 20 °C 1014.4 hPa Calm   1.6 km/h 97 % 0 mm
06:47 20.5 °C 20 °C 1014.4 hPa Calm   1.6 km/h 97 % 0 mm
06:52 20.6 °C 20.1 °C 1014.8 hPa ESE 1.6 km/h 1.6 km/h 97 % 0 mm
06:57 20.6 °C 20.1 °C 1014.8 hPa SE 1.6 km/h 1.6 km/h 97 % 0 mm
07:02 20.7 °C 20.2 °C 1015.1 hPa South 1.6 km/h 3.2 km/h 97 % 0 mm
07:07 20.7 °C 20.2 °C 1015.5 hPa Calm   3.2 km/h 97 % 0 mm
07:12 20.7 °C 20.2 °C 1015.5 hPa Calm   3.2 km/h 97 % 0 mm
07:17 20.7 °C 20.2 °C 1015.5 hPa SE 1.6 km/h 3.2 km/h 97 % 0 mm
07:22 20.7 °C 20.2 °C 1015.5 hPa Calm   3.2 km/h 97 % 0 mm
07:27 20.7 °C 20.2 °C 1015.5 hPa Calm   1.6 km/h 97 % 0 mm
07:32 20.7 °C 20.2 °C 1015.5 hPa NW 3.2 km/h 3.2 km/h 97 % 0 mm
07:37 20.7 °C 20.2 °C 1015.5 hPa Calm   3.2 km/h 97 % 0 mm
07:42 20.7 °C 20.2 °C 1015.5 hPa Calm   3.2 km/h 97 % 0 mm
07:47 20.8 °C 20.3 °C 1015.8 hPa Calm   3.2 km/h 97 % 0 mm
07:52 20.8 °C 20.3 °C 1015.8 hPa Calm   1.6 km/h 97 % 0 mm
07:57 20.8 °C 20.3 °C 1015.8 hPa Calm   3.2 km/h 97 % 0 mm
08:02 20.8 °C 20.3 °C 1015.8 hPa Calm   3.2 km/h 97 % 0 mm
08:07 20.8 °C 20.3 °C 1015.8 hPa NNW 3.2 km/h 4.8 km/h 97 % 0 mm
08:13 20.9 °C 20.4 °C 1015.8 hPa NNW 1.6 km/h 4.8 km/h 97 % 0 mm
08:18 20.9 °C 20.4 °C 1015.8 hPa NNW 1.6 km/h 4.8 km/h 97 % 0 mm
08:23 20.8 °C 20.3 °C 1015.8 hPa NW 1.6 km/h 3.2 km/h 97 % 0 mm
08:28 20.9 °C 20.4 °C 1016.1 hPa NW 1.6 km/h 3.2 km/h 97 % 0 mm
08:33 20.9 °C 20.4 °C 1016.1 hPa NW 1.6 km/h 4.8 km/h 97 % 0 mm
08:38 20.8 °C 20.3 °C 1015.8 hPa NNW 1.6 km/h 4.8 km/h 97 % 0 mm
08:43 20.8 °C 20.3 °C 1015.8 hPa Calm   6.4 km/h 97 % 0 mm
08:48 20.9 °C 20.4 °C 1015.8 hPa Calm   6.4 km/h 97 % 0 mm
08:53 21 °C 20.5 °C 1016.1 hPa NNW 3.2 km/h 6.4 km/h 97 % 0 mm
08:58 21 °C 20.5 °C 1016.1 hPa Calm   4.8 km/h 97 % 0 mm
09:03 21.1 °C 20.6 °C 1016.1 hPa Calm   4.8 km/h 97 % 0 mm
09:08 21.1 °C 20.6 °C 1016.1 hPa NNW 3.2 km/h 4.8 km/h 97 % 0 mm
09:13 21.1 °C 20.6 °C 1016.1 hPa NNW 1.6 km/h 4.8 km/h 97 % 0 mm
09:18 21.1 °C 20.6 °C 1016.1 hPa Calm   4.8 km/h 97 % 0 mm
09:23 21.2 °C 20.7 °C 1016.1 hPa Calm   4.8 km/h 97 % 0 mm
09:28 21.3 °C 20.8 °C 1016.1 hPa NNW 1.6 km/h 4.8 km/h 97 % 0 mm
09:33 21.3 °C 20.8 °C 1016.1 hPa Calm   6.4 km/h 97 % 0 mm
09:38 21.3 °C 20.8 °C 1016.5 hPa NW 1.6 km/h 6.4 km/h 97 % 0 mm
09:43 21.4 °C 20.9 °C 1016.5 hPa NW 4.8 km/h 6.4 km/h 97 % 0 mm
09:48 21.5 °C 21 °C 1016.8 hPa NW 3.2 km/h 9.7 km/h 97 % 0 mm
09:53 21.6 °C 21.1 °C 1017.2 hPa Calm   9.7 km/h 97 % 0 mm
09:58 21.6 °C 20.9 °C 1017.2 hPa West 4.8 km/h 9.7 km/h 96 % 0 mm
10:03 21.5 °C 20.8 °C 1017.2 hPa NW 4.8 km/h 9.7 km/h 96 % 0 mm
10:08 21.6 °C 20.9 °C 1017.2 hPa Calm   9.7 km/h 96 % 0 mm
10:13 21.7 °C 21 °C 1017.2 hPa NW 1.6 km/h 9.7 km/h 96 % 0 mm
10:18 21.8 °C 21.1 °C 1017.2 hPa West 1.6 km/h 9.7 km/h 96 % 0 mm
10:23 21.9 °C 21.2 °C 1017.2 hPa Calm   4.8 km/h 96 % 0 mm
10:28 22.1 °C 21.4 °C 1017.2 hPa Calm   3.2 km/h 96 % 0 mm
10:33 22.1 °C 21.3 °C 1017.2 hPa East 1.6 km/h 3.2 km/h 95 % 0 mm
10:38 22.1 °C 21.3 °C 1017.2 hPa East 1.6 km/h 4.8 km/h 95 % 0 mm
10:43 22.2 °C 21.4 °C 1017.2 hPa Calm   4.8 km/h 95 % 0 mm
10:48 22.3 °C 21.5 °C 1017.2 hPa North 1.6 km/h 6.4 km/h 95 % 0 mm
10:53 22.4 °C 21.6 °C 1017.5 hPa Calm   6.4 km/h 95 % 0 mm
10:58 22.6 °C 21.6 °C 1017.2 hPa Calm   6.4 km/h 94 % 0 mm
11:03 22.6 °C 21.6 °C 1017.2 hPa Calm   4.8 km/h 94 % 0 mm
11:08 22.8 °C 21.8 °C 1017.2 hPa NE 1.6 km/h 3.2 km/h 94 % 0 mm
11:13 23.1 °C 22.1 °C 1017.2 hPa ENE 3.2 km/h 4.8 km/h 94 % 0 mm
11:18 23.2 °C 22 °C 1017.2 hPa Calm   4.8 km/h 93 % 0 mm
11:23 23.3 °C 21.9 °C 1017.2 hPa Calm   4.8 km/h 92 % 0 mm
11:28 23.5 °C 21.9 °C 1017.2 hPa NNE 1.6 km/h 4.8 km/h 91 % 0 mm
11:33 23.6 °C 22 °C 1017.2 hPa Calm   6.4 km/h 91 % 0 mm
11:38 23.8 °C 22.2 °C 1017.2 hPa NNW 3.2 km/h 6.4 km/h 91 % 0 mm
11:43 24 °C 22.1 °C 1017.2 hPa North 1.6 km/h 6.4 km/h 89 % 0 mm
11:48 24.2 °C 22.1 °C 1017.2 hPa NNW 1.6 km/h 6.4 km/h 88 % 0 mm
11:53 24.3 °C 22.2 °C 1017.2 hPa WNW 1.6 km/h 6.4 km/h 88 % 0 mm
11:58 24.5 °C 22.4 °C 1017.2 hPa Calm   8 km/h 88 % 0 mm
12:03 24.7 °C 22.4 °C 1016.8 hPa NNW 3.2 km/h 8 km/h 87 % 0 mm
12:08 24.8 °C 22.5 °C 1016.8 hPa Calm   8 km/h 87 % 0 mm
12:13 24.9 °C 22.4 °C 1016.5 hPa Calm   6.4 km/h 86 % 0 mm
12:18 25.1 °C 22.4 °C 1016.5 hPa Calm   6.4 km/h 85 % 0 mm
12:23 25.2 °C 22.5 °C 1016.1 hPa Calm   8 km/h 85 % 0 mm
12:28 25.4 °C 22.5 °C 1016.1 hPa NW 6.4 km/h 8 km/h 84 % 0 mm
12:33 25.3 °C 22.4 °C 1016.1 hPa NW 3.2 km/h 8 km/h 84 % 0 mm
12:38 25.2 °C 22.1 °C 1015.8 hPa NW 3.2 km/h 12.9 km/h 83 % 0 mm
12:43 25.4 °C 22.5 °C 1016.1 hPa NNW 1.6 km/h 12.9 km/h 84 % 0 mm
12:48 25.5 °C 22 °C 1015.8 hPa West 3.2 km/h 12.9 km/h 81 % 0 mm
12:53 25.7 °C 22.6 °C 1015.8 hPa Calm   9.7 km/h 83 % 0 mm
12:58 25.9 °C 22.4 °C 1015.8 hPa Calm   9.7 km/h 81 % 0 mm
13:03 25.9 °C 22.2 °C 1015.8 hPa NNW 3.2 km/h 9.7 km/h 80 % 0 mm
13:08 26 °C 22.3 °C 1015.8 hPa West 1.6 km/h 8 km/h 80 % 0 mm
13:13 25.9 °C 22 °C 1015.8 hPa NW 8 km/h 8 km/h 79 % 0 mm
13:18 26.1 °C 22.8 °C 1015.5 hPa West 4.8 km/h 9.7 km/h 82 % 0 mm
13:23 26 °C 22.3 °C 1015.5 hPa NNW 8 km/h 12.9 km/h 80 % 0 mm
13:28 25.8 °C 22.3 °C 1015.5 hPa WNW 3.2 km/h 12.9 km/h 81 % 0 mm
13:38 26.4 °C 22.7 °C 1015.5 hPa Calm   11.3 km/h 80 % 0 mm
13:43 26.4 °C 22.3 °C 1015.5 hPa Calm   11.3 km/h 78 % 0 mm
13:48 26.6 °C 22.4 °C 1015.5 hPa WSW 1.6 km/h 8 km/h 78 % 0 mm
13:53 26.6 °C 22.4 °C 1015.5 hPa NW 4.8 km/h 8 km/h 78 % 0 mm
14:03 26.6 °C 22.7 °C 1015.1 hPa NNW 6.4 km/h 14.5 km/h 79 % 0 mm
14:08 26.7 °C 22.3 °C 1015.1 hPa West 4.8 km/h 14.5 km/h 77 % 0 mm
14:13 26.6 °C 22 °C 1015.1 hPa WNW 3.2 km/h 14.5 km/h 76 % 0 mm
14:19 26.5 °C 22.3 °C 1015.1 hPa Calm   9.7 km/h 78 % 0 mm
14:24 26.5 °C 22.3 °C 1015.1 hPa NW 4.8 km/h 11.3 km/h 78 % 0 mm
14:29 26.6 °C 22.2 °C 1015.1 hPa NNW 8 km/h 11.3 km/h 77 % 0 mm
14:34 26.4 °C 22 °C 1015.1 hPa WNW 3.2 km/h 11.3 km/h 77 % 0 mm
14:39 26.3 °C 21.9 °C 1015.1 hPa NW 6.4 km/h 12.9 km/h 77 % 0 mm
14:44 26.3 °C 22.2 °C 1015.1 hPa NNW 4.8 km/h 12.9 km/h 78 % 0 mm
14:49 26.6 °C 22.2 °C 1015.1 hPa NNW 4.8 km/h 12.9 km/h 77 % 0 mm
14:54 26.7 °C 22.3 °C 1015.1 hPa NW 3.2 km/h 8 km/h 77 % 0 mm
14:59 26.7 °C 22.1 °C 1015.1 hPa NW 1.6 km/h 8 km/h 76 % 0 mm
15:04 26.6 °C 22 °C 1015.1 hPa North 6.4 km/h 11.3 km/h 76 % 0 mm
15:09 26.6 °C 22 °C 1014.8 hPa NNW 4.8 km/h 11.3 km/h 76 % 0 mm
15:14 26.8 °C 22.2 °C 1014.8 hPa WNW 1.6 km/h 11.3 km/h 76 % 0 mm
15:19 27.1 °C 22.3 °C 1014.4 hPa NW 6.4 km/h 11.3 km/h 75 % 0 mm
15:24 27.1 °C 22.5 °C 1014.4 hPa NE 4.8 km/h 11.3 km/h 76 % 0 mm
15:29 27.2 °C 22.4 °C 1014.4 hPa NNW 6.4 km/h 11.3 km/h 75 % 0 mm
15:34 27.4 °C 22.4 °C 1014.4 hPa NW 4.8 km/h 11.3 km/h 74 % 0 mm
15:39 27.3 °C 22 °C 1014.4 hPa NW 3.2 km/h 11.3 km/h 73 % 0 mm
15:44 27.2 °C 21.9 °C 1014.4 hPa WNW 1.6 km/h 14.5 km/h 73 % 0 mm
15:49 27.3 °C 22.3 °C 1014.4 hPa WNW 4.8 km/h 14.5 km/h 74 % 0 mm
15:54 27.4 °C 22.1 °C 1014.8 hPa North 6.4 km/h 14.5 km/h 73 % 0 mm
16:04 27.5 °C 22.2 °C 1014.8 hPa ENE 1.6 km/h 11.3 km/h 73 % 0 mm
16:09 27.4 °C 22.4 °C 1014.8 hPa ESE 3.2 km/h 11.3 km/h 74 % 0 mm
16:14 27.4 °C 22.6 °C 1015.1 hPa North 3.2 km/h 8 km/h 75 % 0 mm
16:19 27.4 °C 22.6 °C 1015.1 hPa North 3.2 km/h 8 km/h 75 % 0 mm
16:24 27.5 °C 22.4 °C 1015.1 hPa Calm   8 km/h 74 % 0 mm
16:29 27.4 °C 22.4 °C 1015.1 hPa North 1.6 km/h 8 km/h 74 % 0 mm
16:34 27.4 °C 22.4 °C 1015.1 hPa ENE 1.6 km/h 4.8 km/h 74 % 0 mm
16:39 27.4 °C 22.4 °C 1015.1 hPa Calm   4.8 km/h 74 % 0 mm
16:44 27.6 °C 22.5 °C 1015.1 hPa Calm   4.8 km/h 74 % 0 mm
16:49 27.5 °C 22.2 °C 1014.8 hPa SSE 1.6 km/h 4.8 km/h 73 % 0 mm
16:54 27.4 °C 22.4 °C 1014.8 hPa ESE 4.8 km/h 6.4 km/h 74 % 0 mm
16:59 27.4 °C 22.4 °C 1014.8 hPa Calm   8 km/h 74 % 0 mm
17:04 27.5 °C 22.4 °C 1014.8 hPa Calm   8 km/h 74 % 0 mm
17:09 27.4 °C 22.1 °C 1014.8 hPa NE 4.8 km/h 8 km/h 73 % 0 mm
17:10 27.4 °C 22.1 °C 1014.8 hPa ENE 4.8 km/h 6.4 km/h 73 % 0 mm
17:15 27.2 °C 22.2 °C 1014.8 hPa SE 1.6 km/h 6.4 km/h 74 % 0 mm
17:20 27.3 °C 22.5 °C 1014.4 hPa Calm   6.4 km/h 75 % 0 mm
17:25 27.3 °C 22.3 °C 1014.4 hPa Calm   6.4 km/h 74 % 0 mm
17:30 27.4 °C 22.4 °C 1014.8 hPa Calm   6.4 km/h 74 % 0 mm
17:35 27.6 °C 22.5 °C 1014.8 hPa Calm   6.4 km/h 74 % 0 mm
17:40 27.8 °C 22.5 °C 1014.8 hPa ENE 3.2 km/h 6.4 km/h 73 % 0 mm
17:45 27.7 °C 22.2 °C 1014.8 hPa Calm   4.8 km/h 72 % 0 mm
17:50 27.6 °C 22.1 °C 1014.8 hPa Calm   9.7 km/h 72 % 0 mm
17:55 27.6 °C 22.5 °C 1014.8 hPa East 1.6 km/h 9.7 km/h 74 % 0 mm
18:00 27.7 °C 22.6 °C 1014.4 hPa East 1.6 km/h 9.7 km/h 74 % 0 mm
18:05 27.9 °C 22.8 °C 1014.4 hPa NNE 1.6 km/h 4.8 km/h 74 % 0 mm
18:11 28.2 °C 22.7 °C 1014.4 hPa Calm   4.8 km/h 72 % 0 mm
18:16 28.3 °C 22.3 °C 1014.4 hPa East 1.6 km/h 4.8 km/h 70 % 0 mm
18:21 28.2 °C 22.2 °C 1014.4 hPa SE 1.6 km/h 6.4 km/h 70 % 0 mm
18:26 28 °C 22 °C 1014.4 hPa Calm   6.4 km/h 70 % 0 mm
18:31 28.1 °C 22.3 °C 1014.4 hPa Calm   6.4 km/h 71 % 0 mm
18:36 28.3 °C 22.5 °C 1014.4 hPa South 3.2 km/h 9.7 km/h 71 % 0 mm
18:41 28.4 °C 22.4 °C 1014.4 hPa NW 1.6 km/h 9.7 km/h 70 % 0 mm
18:46 28.2 °C 22.2 °C 1014.4 hPa Calm   9.7 km/h 70 % 0 mm
18:51 28.4 °C 22.6 °C 1014.1 hPa NNE 1.6 km/h 6.4 km/h 71 % 0 mm
18:56 28.3 °C 22.5 °C 1014.1 hPa NNW 6.4 km/h 6.4 km/h 71 % 0 mm
19:01 28 °C 22 °C 1014.1 hPa NNE 3.2 km/h 8 km/h 70 % 0 mm
19:06 27.6 °C 21.9 °C 1014.1 hPa East 3.2 km/h 8 km/h 71 % 0 mm
19:11 27.3 °C 21.8 °C 1014.4 hPa Calm   8 km/h 72 % 0 mm
19:16 27.2 °C 21.9 °C 1014.4 hPa ESE 1.6 km/h 8 km/h 73 % 0 mm
19:21 27.2 °C 21.9 °C 1014.4 hPa Calm   8 km/h 73 % 0 mm
19:26 26.9 °C 21.9 °C 1014.4 hPa North 1.6 km/h 6.4 km/h 74 % 0 mm
19:31 26.9 °C 22.1 °C 1014.1 hPa Calm   6.4 km/h 75 % 0 mm
19:36 26.8 °C 22.2 °C 1014.1 hPa NE 3.2 km/h 4.8 km/h 76 % 0 mm
19:41 26.7 °C 22.1 °C 1014.1 hPa East 1.6 km/h 6.4 km/h 76 % 0 mm
19:46 26.7 °C 22.3 °C 1014.1 hPa ESE 3.2 km/h 6.4 km/h 77 % 0 mm
19:51 26.5 °C 22.1 °C 1014.1 hPa Calm   6.4 km/h 77 % 0 mm
19:56 26.4 °C 22.3 °C 1014.1 hPa Calm   6.4 km/h 78 % 0 mm
20:01 26.3 °C 22.2 °C 1014.1 hPa NE 1.6 km/h 6.4 km/h 78 % 0 mm
20:06 26.2 °C 22.3 °C 1014.4 hPa NE 1.6 km/h 4.8 km/h 79 % 0 mm
20:11 26.1 °C 22.4 °C 1014.4 hPa ESE 1.6 km/h 8 km/h 80 % 0 mm
20:16 25.9 °C 22.2 °C 1014.4 hPa Calm   8 km/h 80 % 0 mm
20:21 25.8 °C 22.3 °C 1014.4 hPa Calm   8 km/h 81 % 0 mm
20:26 25.7 °C 22.2 °C 1014.4 hPa NE 1.6 km/h 6.4 km/h 81 % 0 mm
20:31 25.6 °C 22.3 °C 1014.4 hPa Calm   6.4 km/h 82 % 0 mm
20:36 25.4 °C 22.1 °C 1014.4 hPa Calm   6.4 km/h 82 % 0 mm
20:41 25.3 °C 22.2 °C 1014.4 hPa Calm   6.4 km/h 83 % 0 mm
20:46 25.2 °C 22.3 °C 1014.4 hPa Calm   1.6 km/h 84 % 0 mm
20:51 25.1 °C 22.2 °C 1014.4 hPa Calm   1.6 km/h 84 % 0 mm
20:56 25 °C 22.1 °C 1014.4 hPa Calm   1.6 km/h 84 % 0 mm
21:01 24.8 °C 21.9 °C 1014.4 hPa Calm   1.6 km/h 84 % 0 mm
21:06 24.7 °C 22 °C 1014.4 hPa Calm   1.6 km/h 85 % 0 mm
21:11 24.7 °C 22.2 °C 1014.4 hPa Calm   1.6 km/h 86 % 0 mm
21:16 24.7 °C 22.2 °C 1014.4 hPa Calm   1.6 km/h 86 % 0 mm
21:21 24.6 °C 22.1 °C 1014.4 hPa ESE 1.6 km/h 1.6 km/h 86 % 0 mm
21:23 24.6 °C 22.1 °C 1014.4 hPa East 1.6 km/h 1.6 km/h 86 % 0 mm
21:28 24.5 °C 22.2 °C 1014.4 hPa Calm   3.2 km/h 87 % 0 mm
21:33 24.4 °C 22.1 °C 1014.4 hPa Calm   3.2 km/h 87 % 0 mm
21:38 24.4 °C 22.1 °C 1014.4 hPa Calm   6.4 km/h 87 % 0 mm
21:43 24.3 °C 22.2 °C 1014.4 hPa ENE 4.8 km/h 6.4 km/h 88 % 0 mm
21:48 24.3 °C 22.2 °C 1014.8 hPa Calm   6.4 km/h 88 % 0 mm
21:53 24.2 °C 22.1 °C 1014.8 hPa ENE 3.2 km/h 6.4 km/h 88 % 0 mm
21:58 24.2 °C 22.1 °C 1014.8 hPa ESE 1.6 km/h 6.4 km/h 88 % 0 mm
22:03 24.1 °C 22 °C 1015.1 hPa Calm   4.8 km/h 88 % 0 mm
22:08 24.1 °C 22.2 °C 1015.1 hPa Calm   3.2 km/h 89 % 0 mm
22:13 23.9 °C 22 °C 1015.1 hPa Calm   3.2 km/h 89 % 0 mm
22:19 23.9 °C 22 °C 1015.5 hPa Calm   3.2 km/h 89 % 0 mm
22:24 23.8 °C 21.9 °C 1015.5 hPa Calm   1.6 km/h 89 % 0 mm
22:29 23.7 °C 21.8 °C 1015.5 hPa Calm   1.6 km/h 89 % 0 mm
22:34 23.7 °C 22 °C 1015.5 hPa Calm   1.6 km/h 90 % 0 mm
22:39 23.6 °C 21.9 °C 1015.8 hPa Calm   1.6 km/h 90 % 0 mm
22:44 23.5 °C 21.8 °C 1015.8 hPa Calm   1.6 km/h 90 % 0 mm
22:46 23.5 °C 21.8 °C 1015.8 hPa Calm     90 % 0 mm
22:51 23.4 °C 21.7 °C 1015.8 hPa Calm     90 % 0 mm
22:56 23.2 °C 21.5 °C 1015.8 hPa Calm     90 % 0 mm
23:01 23.2 °C 21.6 °C 1015.8 hPa Calm     91 % 0 mm
23:06 23.2 °C 21.6 °C 1015.8 hPa Calm     91 % 0 mm
23:11 23.1 °C 21.5 °C 1015.8 hPa Calm     91 % 0 mm
23:16 23.1 °C 21.5 °C 1015.8 hPa Calm     91 % 0 mm
23:21 22.9 °C 21.5 °C 1015.8 hPa Calm     92 % 0 mm
23:26 22.8 °C 21.4 °C 1015.8 hPa Calm     92 % 0 mm
23:28 22.8 °C 21.4 °C 1015.8 hPa Calm     92 % 0 mm
23:33 22.8 °C 21.4 °C 1015.8 hPa Calm   1.6 km/h 92 % 0 mm
23:38 22.8 °C 21.4 °C 1015.8 hPa Calm   1.6 km/h 92 % 0 mm
23:43 22.8 °C 21.6 °C 1015.8 hPa Calm   1.6 km/h 93 % 0 mm
23:48 22.7 °C 21.5 °C 1016.1 hPa Calm   1.6 km/h 93 % 0 mm
23:53 22.7 °C 21.5 °C 1016.1 hPa Calm   1.6 km/h 93 % 0 mm
23:58 22.7 °C 21.5 °C 1016.1 hPa Calm     93 % 0 mm
Spring, Texas: Villages of Bridgestone
Compliments of Weather Underground - 2.75 mb

Script developed by  Jim McMurry - jmcmurry@mwt.net Adapted for the template by  Wim van der Kuil - Leuven-Template.eu

You find our weather info also at:

UK Metoffice

WeatherCloud

Weather Underground

Mid-South Weather Network

AWEKAS

Citizen Weather Observer Program (CWOP)

HAMweather, WeatherForYou, PWS Weather

Equipment we use:

Weather-station
Davis Vantage Vue

Weather-program
Meteohub

Weather-server
Debian 7.9 x86 (Guest)

Provider
DreamHost

Davis Vantage Vue

Meteohub

Debian 7.9 x86 (Guest)

DreamHost